createdAt,value
2018-09-11T00:00:39.967Z,0
2018-09-11T00:01:40.691Z,0
2018-09-11T00:02:41.413Z,0
2018-09-11T00:03:42.147Z,0
2018-09-11T00:04:42.913Z,0
2018-09-11T00:05:43.654Z,0
2018-09-11T00:06:44.633Z,0
2018-09-11T00:07:45.351Z,0
2018-09-11T00:08:46.071Z,0
2018-09-11T00:09:46.808Z,0
2018-09-11T00:10:47.532Z,0
2018-09-11T00:11:48.254Z,0
2018-09-11T00:12:48.972Z,0
2018-09-11T00:13:49.712Z,0
2018-09-11T00:14:50.476Z,0
2018-09-11T00:15:51.205Z,0
2018-09-11T00:16:52.185Z,0
2018-09-11T00:17:53.153Z,0
2018-09-11T00:18:53.863Z,0
2018-09-11T00:19:54.627Z,0
2018-09-11T00:20:55.347Z,0
2018-09-11T00:21:56.061Z,0
2018-09-11T00:22:56.780Z,0
2018-09-11T00:23:57.512Z,0
2018-09-11T00:24:58.244Z,0
2018-09-11T00:25:58.989Z,0
2018-09-11T00:26:59.763Z,0
2018-09-11T00:28:00.478Z,0
2018-09-11T00:29:01.207Z,0
2018-09-11T00:30:02.850Z,0
2018-09-11T00:31:03.565Z,0
2018-09-11T00:32:04.299Z,0
2018-09-11T00:33:05.042Z,0
2018-09-11T00:34:06.166Z,0
2018-09-11T00:35:06.878Z,0
2018-09-11T00:36:07.636Z,0
2018-09-11T00:37:08.362Z,0
2018-09-11T00:38:09.080Z,0
2018-09-11T00:39:09.805Z,0
2018-09-11T00:40:10.531Z,0
2018-09-11T00:41:11.497Z,0
2018-09-11T00:42:12.223Z,0
2018-09-11T00:43:12.951Z,0
2018-09-11T00:44:13.924Z,0
2018-09-11T00:45:14.916Z,0
2018-09-11T00:46:15.641Z,0
2018-09-11T00:47:16.409Z,0
2018-09-11T00:48:17.136Z,0
2018-09-11T00:49:17.869Z,0
2018-09-11T00:50:18.592Z,0
2018-09-11T00:51:19.332Z,0
2018-09-11T00:52:20.100Z,0
2018-09-11T00:53:20.822Z,0
2018-09-11T00:54:21.539Z,0
2018-09-11T00:55:22.257Z,0
2018-09-11T00:56:22.991Z,0
2018-09-11T00:57:23.716Z,0
2018-09-11T00:58:24.431Z,0
2018-09-11T00:59:25.159Z,0
2018-09-11T01:00:25.889Z,0
2018-09-11T01:01:26.636Z,0
2018-09-11T01:02:27.332Z,0
2018-09-11T01:03:28.061Z,0
2018-09-11T01:04:29.039Z,0
2018-09-11T01:05:29.761Z,0
2018-09-11T01:06:30.478Z,0
2018-09-11T01:07:31.458Z,0
2018-09-11T01:08:32.175Z,0
2018-09-11T01:09:32.905Z,0
2018-09-11T01:10:33.627Z,0
2018-09-11T01:11:34.349Z,0
2018-09-11T01:12:35.068Z,0
2018-09-11T01:13:35.795Z,0
2018-09-11T01:14:36.524Z,0
2018-09-11T01:15:37.239Z,0
2018-09-11T01:16:37.958Z,0
2018-09-11T01:17:38.944Z,0
2018-09-11T01:18:39.654Z,0
2018-09-11T01:19:40.391Z,0
2018-09-11T01:20:41.103Z,0
2018-09-11T01:21:41.830Z,0
2018-09-11T01:22:42.547Z,0
2018-09-11T01:23:43.271Z,0
2018-09-11T01:24:43.991Z,0
2018-09-11T01:25:44.767Z,0
2018-09-11T01:26:45.493Z,0
2018-09-11T01:27:46.214Z,0
2018-09-11T01:28:46.933Z,0
2018-09-11T01:29:47.659Z,0
2018-09-11T01:30:48.389Z,0
2018-09-11T01:31:49.373Z,0
2018-09-11T01:32:50.093Z,0
2018-09-11T01:33:50.809Z,0
2018-09-11T01:34:51.522Z,0
2018-09-11T01:35:52.295Z,0
2018-09-11T01:36:53.019Z,0
2018-09-11T01:37:53.743Z,0
2018-09-11T01:38:54.481Z,0
2018-09-11T01:39:55.212Z,0
2018-09-11T01:40:55.980Z,0
2018-09-11T01:41:56.695Z,0
2018-09-11T01:42:57.423Z,0
2018-09-11T01:43:58.158Z,0
2018-09-11T01:44:58.886Z,0
2018-09-11T01:45:59.915Z,0
2018-09-11T01:47:00.630Z,0
2018-09-11T01:48:01.350Z,0
2018-09-11T01:49:02.079Z,0
2018-09-11T01:50:02.812Z,0
2018-09-11T01:51:03.540Z,0
2018-09-11T01:52:04.251Z,0
2018-09-11T01:53:04.961Z,0
2018-09-11T01:54:05.745Z,0
2018-09-11T01:55:06.455Z,0
2018-09-11T01:56:07.189Z,0
2018-09-11T01:57:07.914Z,0
2018-09-11T01:58:08.636Z,0
2018-09-11T01:59:09.404Z,0
2018-09-11T02:00:10.123Z,0
2018-09-11T02:01:10.844Z,0
2018-09-11T02:02:11.569Z,0
2018-09-11T02:03:12.347Z,0
2018-09-11T02:04:13.062Z,0
2018-09-11T02:05:13.787Z,0
2018-09-11T02:06:14.518Z,0
2018-09-11T02:07:15.235Z,0
2018-09-11T02:08:16.217Z,0
2018-09-11T02:09:16.937Z,0
2018-09-11T02:10:17.654Z,0
2018-09-11T02:11:18.372Z,0
2018-09-11T02:12:19.093Z,0
2018-09-11T02:13:19.821Z,0
2018-09-11T02:14:20.541Z,0
2018-09-11T02:15:22.122Z,0
2018-09-11T02:16:22.853Z,0
2018-09-11T02:17:23.575Z,0
2018-09-11T02:18:24.303Z,0
2018-09-11T02:19:25.031Z,0
2018-09-11T02:20:26.108Z,0
2018-09-11T02:21:26.827Z,0
2018-09-11T02:22:27.557Z,0
2018-09-11T02:23:28.305Z,0
2018-09-11T02:24:29.033Z,0
2018-09-11T02:25:29.749Z,0
2018-09-11T02:26:30.482Z,0
2018-09-11T02:27:31.222Z,0
2018-09-11T02:28:31.950Z,0
2018-09-11T02:29:32.675Z,0
2018-09-11T02:30:33.408Z,0
2018-09-11T02:31:34.119Z,0
2018-09-11T02:32:34.840Z,0
2018-09-11T02:33:35.559Z,0
2018-09-11T02:34:36.555Z,0
2018-09-11T02:35:37.330Z,0
2018-09-11T02:36:38.000Z,0
2018-09-11T02:37:38.785Z,0
2018-09-11T02:38:39.515Z,0
2018-09-11T02:39:40.226Z,0
2018-09-11T02:40:40.947Z,0
2018-09-11T02:41:41.926Z,0
2018-09-11T02:42:42.645Z,0
2018-09-11T02:43:43.362Z,0
2018-09-11T02:44:44.082Z,0
2018-09-11T02:45:45.052Z,0
2018-09-11T02:46:45.832Z,0
2018-09-11T02:47:46.536Z,0
2018-09-11T02:48:47.271Z,0
2018-09-11T02:49:48.001Z,0
2018-09-11T02:50:48.725Z,0
2018-09-11T02:51:49.438Z,0
2018-09-11T02:52:50.174Z,0
2018-09-11T02:53:50.891Z,0
2018-09-11T02:54:51.615Z,0
2018-09-11T02:55:52.333Z,0
2018-09-11T02:56:53.053Z,0
2018-09-11T02:57:53.767Z,0
2018-09-11T02:58:54.493Z,0
2018-09-11T02:59:55.260Z,0
2018-09-11T03:00:55.995Z,0
2018-09-11T03:01:56.717Z,0
2018-09-11T03:02:57.439Z,0
2018-09-11T03:03:58.161Z,0
2018-09-11T03:04:58.888Z,0
2018-09-11T03:05:59.857Z,0
2018-09-11T03:07:00.824Z,0
2018-09-11T03:08:01.537Z,0
2018-09-11T03:09:02.262Z,0
2018-09-11T03:10:02.975Z,0
2018-09-11T03:11:03.699Z,0
2018-09-11T03:12:04.427Z,0
2018-09-11T03:13:05.144Z,0
2018-09-11T03:14:05.878Z,0
2018-09-11T03:15:06.584Z,0
2018-09-11T03:16:07.324Z,0
2018-09-11T03:17:08.101Z,0
2018-09-11T03:18:08.808Z,0
2018-09-11T03:19:09.535Z,0
2018-09-11T03:20:10.263Z,0
2018-09-11T03:21:10.981Z,0
2018-09-11T03:22:11.710Z,0
2018-09-11T03:23:12.426Z,0
2018-09-11T03:24:13.205Z,0
2018-09-11T03:25:13.917Z,0
2018-09-11T03:26:14.638Z,0
2018-09-11T03:27:15.393Z,0
2018-09-11T03:28:16.107Z,0
2018-09-11T03:29:16.868Z,0
2018-09-11T03:30:17.585Z,0
2018-09-11T03:31:18.309Z,0
2018-09-11T03:32:19.032Z,0
2018-09-11T03:33:19.765Z,0
2018-09-11T03:34:20.756Z,0
2018-09-11T03:35:21.463Z,0
2018-09-11T03:36:22.198Z,0
2018-09-11T03:37:23.187Z,0
2018-09-11T03:38:23.896Z,0
2018-09-11T03:39:24.675Z,0
2018-09-11T03:40:25.397Z,0
2018-09-11T03:41:26.122Z,0
2018-09-11T03:42:26.846Z,0
2018-09-11T03:43:27.564Z,0
2018-09-11T03:44:28.289Z,0
2018-09-11T03:45:29.259Z,0
2018-09-11T03:46:29.982Z,0
2018-09-11T03:47:30.960Z,0
2018-09-11T03:48:31.685Z,0
2018-09-11T03:49:32.416Z,0
2018-09-11T03:50:33.135Z,0
2018-09-11T03:51:33.858Z,0
2018-09-11T03:52:34.578Z,0
2018-09-11T03:53:35.300Z,0
2018-09-11T03:54:36.081Z,0
2018-09-11T03:55:36.796Z,0
2018-09-11T03:56:37.511Z,0
2018-09-11T03:57:38.256Z,0
2018-09-11T03:58:38.979Z,0
2018-09-11T03:59:39.691Z,0
2018-09-11T04:00:40.682Z,0
2018-09-11T04:01:41.404Z,0
2018-09-11T04:02:42.126Z,0
2018-09-11T04:03:42.863Z,0
2018-09-11T04:04:43.577Z,0
2018-09-11T04:05:44.284Z,0
2018-09-11T04:06:45.024Z,0
2018-09-11T04:07:45.737Z,0
2018-09-11T04:08:46.731Z,0
2018-09-11T04:09:47.450Z,0
2018-09-11T04:10:48.191Z,0
2018-09-11T04:11:48.918Z,0
2018-09-11T04:12:49.641Z,0
2018-09-11T04:13:50.365Z,0
2018-09-11T04:14:51.087Z,0
2018-09-11T04:15:51.806Z,0
2018-09-11T04:16:52.529Z,0
2018-09-11T04:17:53.256Z,0
2018-09-11T04:18:53.979Z,0
2018-09-11T04:19:54.701Z,0
2018-09-11T04:20:55.426Z,0
2018-09-11T04:21:56.151Z,0
2018-09-11T04:22:56.869Z,0
2018-09-11T04:23:57.846Z,0
2018-09-11T04:24:58.571Z,0
2018-09-11T04:25:59.603Z,0
2018-09-11T04:27:00.322Z,0
2018-09-11T04:28:01.040Z,0
2018-09-11T04:29:01.761Z,0
2018-09-11T04:30:02.478Z,0
2018-09-11T04:31:03.248Z,0
2018-09-11T04:32:03.975Z,0
2018-09-11T04:33:04.696Z,0
2018-09-11T04:34:05.427Z,0
2018-09-11T04:35:06.151Z,0
2018-09-11T04:36:06.928Z,0
2018-09-11T04:37:07.651Z,0
2018-09-11T04:38:08.631Z,0
2018-09-11T04:39:09.349Z,0
2018-09-11T04:40:10.077Z,0
2018-09-11T04:41:10.816Z,0
2018-09-11T04:42:11.551Z,0
2018-09-11T04:43:12.332Z,0
2018-09-11T04:44:13.007Z,0
2018-09-11T04:45:13.740Z,5
2018-09-11T04:46:14.476Z,5
2018-09-11T04:47:15.207Z,5
2018-09-11T04:48:15.924Z,5
2018-09-11T04:49:16.967Z,5
2018-09-11T04:50:17.691Z,5
2018-09-11T04:51:18.414Z,5
2018-09-11T04:52:19.137Z,5
2018-09-11T04:53:19.856Z,5
2018-09-11T04:54:20.592Z,11
2018-09-11T04:55:21.315Z,11
2018-09-11T04:56:22.039Z,11
2018-09-11T04:57:22.766Z,11
2018-09-11T04:58:23.542Z,16
2018-09-11T04:59:24.525Z,16
2018-09-11T05:00:25.236Z,16
2018-09-11T05:01:25.965Z,22
2018-09-11T05:02:26.691Z,22
2018-09-11T05:03:27.453Z,22
2018-09-11T05:04:28.173Z,28
2018-09-11T05:05:28.897Z,28
2018-09-11T05:06:29.638Z,28
2018-09-11T05:07:30.350Z,33
2018-09-11T05:08:31.433Z,33
2018-09-11T05:09:32.406Z,33
2018-09-11T05:10:33.128Z,33
2018-09-11T05:11:33.867Z,39
2018-09-11T05:12:34.599Z,39
2018-09-11T05:13:35.618Z,39
2018-09-11T05:14:36.344Z,45
2018-09-11T05:15:37.060Z,45
2018-09-11T05:16:37.784Z,45
2018-09-11T05:17:38.529Z,50
2018-09-11T05:18:39.308Z,50
2018-09-11T05:19:40.036Z,50
2018-09-11T05:20:40.761Z,56
2018-09-11T05:21:41.490Z,56
2018-09-11T05:22:42.215Z,61
2018-09-11T05:23:42.989Z,61
2018-09-11T05:24:43.720Z,61
2018-09-11T05:25:44.453Z,61
2018-09-11T05:26:45.178Z,67
2018-09-11T05:27:45.901Z,67
2018-09-11T05:28:47.234Z,67
2018-09-11T05:29:47.965Z,73
2018-09-11T05:30:48.697Z,73
2018-09-11T05:31:49.441Z,73
2018-09-11T05:32:50.163Z,78
2018-09-11T05:33:50.895Z,78
2018-09-11T05:34:51.657Z,84
2018-09-11T05:35:52.390Z,84
2018-09-11T05:36:53.126Z,84
2018-09-11T05:37:53.848Z,90
2018-09-11T05:38:54.602Z,90
2018-09-11T05:39:55.299Z,95
2018-09-11T05:40:56.327Z,95
2018-09-11T05:41:57.049Z,95
2018-09-11T05:42:57.781Z,101
2018-09-11T05:43:58.496Z,101
2018-09-11T05:44:59.223Z,106
2018-09-11T05:45:59.947Z,112
2018-09-11T05:47:00.730Z,112
2018-09-11T05:48:01.465Z,112
2018-09-11T05:49:02.199Z,118
2018-09-11T05:50:02.932Z,118
2018-09-11T05:51:03.647Z,123
2018-09-11T05:52:04.404Z,123
2018-09-11T05:53:05.180Z,129
2018-09-11T05:54:05.900Z,135
2018-09-11T05:55:06.628Z,151
2018-09-11T05:56:07.361Z,140
2018-09-11T05:57:08.089Z,140
2018-09-11T05:58:08.871Z,146
2018-09-11T05:59:09.857Z,146
2018-09-11T06:00:10.576Z,151
2018-09-11T06:01:11.572Z,151
2018-09-11T06:02:12.301Z,151
2018-09-11T06:03:13.807Z,157
2018-09-11T06:04:14.525Z,163
2018-09-11T06:05:15.272Z,157
2018-09-11T06:06:15.994Z,163
2018-09-11T06:07:16.710Z,168
2018-09-11T06:08:17.430Z,168
2018-09-11T06:09:18.165Z,185
2018-09-11T06:10:19.242Z,174
2018-09-11T06:11:19.969Z,180
2018-09-11T06:12:20.704Z,180
2018-09-11T06:13:21.435Z,180
2018-09-11T06:14:22.151Z,180
2018-09-11T06:15:22.923Z,185
2018-09-11T06:16:23.716Z,180
2018-09-11T06:17:24.371Z,185
2018-09-11T06:18:25.091Z,191
2018-09-11T06:19:25.838Z,202
2018-09-11T06:20:26.554Z,196
2018-09-11T06:21:27.285Z,196
2018-09-11T06:22:28.018Z,196
2018-09-11T06:23:28.748Z,202
2018-09-11T06:24:29.473Z,202
2018-09-11T06:25:30.207Z,208
2018-09-11T06:26:30.937Z,213
2018-09-11T06:27:31.666Z,219
2018-09-11T06:28:32.390Z,225
2018-09-11T06:29:33.112Z,253
2018-09-11T06:30:33.836Z,241
2018-09-11T06:31:34.567Z,270
2018-09-11T06:32:35.309Z,309
2018-09-11T06:33:36.028Z,354
2018-09-11T06:34:36.764Z,416
2018-09-11T06:35:37.504Z,365
2018-09-11T06:36:38.222Z,315
2018-09-11T06:37:38.944Z,286
2018-09-11T06:38:39.678Z,292
2018-09-11T06:39:40.397Z,354
2018-09-11T06:40:41.120Z,388
2018-09-11T06:41:41.852Z,348
2018-09-11T06:42:42.581Z,320
2018-09-11T06:43:43.305Z,405
2018-09-11T06:44:44.107Z,461
2018-09-11T06:45:44.821Z,427
2018-09-11T06:46:45.535Z,433
2018-09-11T06:47:46.500Z,472
2018-09-11T06:48:47.254Z,405
2018-09-11T06:49:47.991Z,427
2018-09-11T06:50:48.725Z,371
2018-09-11T06:51:49.444Z,354
2018-09-11T06:52:50.179Z,360
2018-09-11T06:53:50.918Z,264
2018-09-11T06:54:51.777Z,258
2018-09-11T06:55:52.414Z,264
2018-09-11T06:56:53.138Z,241
2018-09-11T06:57:53.864Z,230
2018-09-11T06:58:54.618Z,241
2018-09-11T06:59:55.321Z,270
2018-09-11T07:00:56.114Z,275
2018-09-11T07:01:57.152Z,292
2018-09-11T07:02:57.824Z,343
2018-09-11T07:03:58.550Z,450
2018-09-11T07:04:59.520Z,478
2018-09-11T07:06:00.264Z,382
2018-09-11T07:07:00.989Z,382
2018-09-11T07:08:01.724Z,388
2018-09-11T07:09:02.454Z,416
2018-09-11T07:10:03.185Z,444
2018-09-11T07:11:03.904Z,337
2018-09-11T07:12:04.684Z,393
2018-09-11T07:13:05.418Z,483
2018-09-11T07:14:06.143Z,585
2018-09-11T07:15:06.868Z,613
2018-09-11T07:16:07.592Z,601
2018-09-11T07:17:08.320Z,556
2018-09-11T07:18:09.052Z,646
2018-09-11T07:19:09.784Z,658
2018-09-11T07:20:10.791Z,613
2018-09-11T07:21:11.289Z,534
2018-09-11T07:22:12.005Z,556
2018-09-11T07:23:12.745Z,613
2018-09-11T07:24:13.467Z,646
2018-09-11T07:25:14.228Z,675
2018-09-11T07:26:14.988Z,725
2018-09-11T07:27:15.681Z,652
2018-09-11T07:28:16.417Z,624
2018-09-11T07:29:17.152Z,601
2018-09-11T07:30:17.930Z,686
2018-09-11T07:31:18.660Z,618
2018-09-11T07:32:19.330Z,635
2018-09-11T07:33:20.065Z,748
2018-09-11T07:34:20.771Z,765
2018-09-11T07:35:21.561Z,697
2018-09-11T07:36:22.347Z,736
2018-09-11T07:37:23.025Z,720
2018-09-11T07:38:23.775Z,787
2018-09-11T07:39:24.494Z,731
2018-09-11T07:40:25.575Z,759
2018-09-11T07:41:26.552Z,663
2018-09-11T07:42:27.546Z,725
2018-09-11T07:43:28.271Z,804
2018-09-11T07:44:29.002Z,770
2018-09-11T07:45:29.803Z,765
2018-09-11T07:46:30.525Z,787
2018-09-11T07:47:31.248Z,748
2018-09-11T07:48:31.976Z,691
2018-09-11T07:49:32.697Z,798
2018-09-11T07:50:33.787Z,776
2018-09-11T07:51:34.539Z,770
2018-09-11T07:52:35.837Z,933
2018-09-11T07:53:36.550Z,793
2018-09-11T07:54:37.275Z,1299
2018-09-11T07:55:38.307Z,1125
2018-09-11T07:56:39.043Z,787
2018-09-11T07:57:40.108Z,1327
2018-09-11T07:58:40.762Z,838
2018-09-11T07:59:41.502Z,725
2018-09-11T08:00:42.575Z,618
2018-09-11T08:01:43.315Z,663
2018-09-11T08:02:44.045Z,742
2018-09-11T08:03:44.771Z,697
2018-09-11T08:04:45.498Z,838
2018-09-11T08:05:46.237Z,714
2018-09-11T08:06:46.968Z,703
2018-09-11T08:07:47.701Z,855
2018-09-11T08:08:48.425Z,781
2018-09-11T08:09:49.165Z,995
2018-09-11T08:10:50.150Z,731
2018-09-11T08:11:50.961Z,573
2018-09-11T08:12:51.686Z,1130
2018-09-11T08:13:52.413Z,708
2018-09-11T08:14:53.152Z,675
2018-09-11T08:15:53.879Z,556
2018-09-11T08:16:54.659Z,703
2018-09-11T08:17:55.419Z,1243
2018-09-11T08:18:56.121Z,1372
2018-09-11T08:19:57.155Z,1451
2018-09-11T08:20:57.795Z,1209
2018-09-11T08:21:59.846Z,1293
2018-09-11T08:23:00.864Z,1316
2018-09-11T08:24:01.587Z,1389
2018-09-11T08:25:02.326Z,1591
2018-09-11T08:26:03.046Z,1254
2018-09-11T08:27:03.827Z,1423
2018-09-11T08:28:04.573Z,1963
2018-09-11T08:29:05.307Z,2058
2018-09-11T08:30:06.047Z,1749
2018-09-11T08:31:06.786Z,1873
2018-09-11T08:32:07.714Z,1918
2018-09-11T08:33:08.772Z,1771
2018-09-11T08:34:09.496Z,1676
2018-09-11T08:35:10.232Z,1704
2018-09-11T08:36:11.399Z,1670
2018-09-11T08:37:12.125Z,1411
2018-09-11T08:38:12.842Z,1721
2018-09-11T08:39:13.619Z,1631
2018-09-11T08:40:14.353Z,1479
2018-09-11T08:41:15.081Z,1479
2018-09-11T08:42:15.813Z,1563
2018-09-11T08:43:16.544Z,1586
2018-09-11T08:44:17.286Z,1625
2018-09-11T08:45:18.006Z,1546
2018-09-11T08:46:18.735Z,1530
2018-09-11T08:47:19.478Z,1496
2018-09-11T08:48:20.202Z,1507
2018-09-11T08:49:21.281Z,1473
2018-09-11T08:50:22.009Z,1361
2018-09-11T08:51:22.737Z,1305
2018-09-11T08:52:23.469Z,1316
2018-09-11T08:53:24.193Z,1276
2018-09-11T08:54:24.930Z,1203
2018-09-11T08:55:25.659Z,1383
2018-09-11T08:56:26.400Z,1361
2018-09-11T08:57:27.126Z,1485
2018-09-11T08:58:27.897Z,1518
2018-09-11T08:59:28.586Z,1496
2018-09-11T09:00:30.893Z,1552
2018-09-11T09:01:32.190Z,1755
2018-09-11T09:02:32.987Z,1743
2018-09-11T09:03:33.740Z,1693
2018-09-11T09:04:34.467Z,1704
2018-09-11T09:05:35.205Z,1535
2018-09-11T09:06:35.937Z,1462
2018-09-11T09:07:36.675Z,1597
2018-09-11T09:08:37.398Z,1423
2018-09-11T09:09:38.139Z,1400
2018-09-11T09:10:38.863Z,1395
2018-09-11T09:11:39.596Z,1366
2018-09-11T09:12:40.320Z,1456
2018-09-11T09:13:41.420Z,1378
2018-09-11T09:14:42.142Z,1411
2018-09-11T09:15:42.954Z,1524
2018-09-11T09:16:43.608Z,1479
2018-09-11T09:17:44.401Z,1361
2018-09-11T09:18:45.124Z,1456
2018-09-11T09:19:45.861Z,1321
2018-09-11T09:20:46.600Z,1546
2018-09-11T09:21:47.330Z,1726
2018-09-11T09:22:48.108Z,1726
2018-09-11T09:23:48.857Z,1991
2018-09-11T09:24:49.588Z,2115
2018-09-11T09:25:50.983Z,2221
2018-09-11T09:26:51.740Z,1771
2018-09-11T09:27:52.530Z,1805
2018-09-11T09:28:53.267Z,2036
2018-09-11T09:29:54.000Z,2030
2018-09-11T09:30:54.735Z,1861
2018-09-11T09:31:55.465Z,1794
2018-09-11T09:32:56.199Z,1918
2018-09-11T09:33:56.932Z,2070
2018-09-11T09:34:57.702Z,1867
2018-09-11T09:35:58.466Z,1805
2018-09-11T09:36:59.276Z,1715
2018-09-11T09:37:59.939Z,2126
2018-09-11T09:39:00.678Z,2368
2018-09-11T09:40:01.462Z,2109
2018-09-11T09:41:02.196Z,2041
2018-09-11T09:42:02.929Z,2227
2018-09-11T09:43:03.669Z,2030
2018-09-11T09:44:04.445Z,2368
2018-09-11T09:45:05.138Z,2176
2018-09-11T09:46:05.870Z,2171
2018-09-11T09:47:06.595Z,2351
2018-09-11T09:48:07.328Z,2182
2018-09-11T09:49:08.058Z,1912
2018-09-11T09:50:09.040Z,2030
2018-09-11T09:51:09.774Z,2306
2018-09-11T09:52:10.508Z,2216
2018-09-11T09:53:11.491Z,2131
2018-09-11T09:54:12.219Z,2401
2018-09-11T09:55:12.948Z,2233
2018-09-11T09:56:13.680Z,1912
2018-09-11T09:57:14.408Z,2081
2018-09-11T09:58:15.416Z,2278
2018-09-11T09:59:16.472Z,2469
2018-09-11T10:00:17.580Z,2435
2018-09-11T10:01:18.656Z,2587
2018-09-11T10:02:19.393Z,2632
2018-09-11T10:03:20.123Z,2469
2018-09-11T10:04:20.863Z,2154
2018-09-11T10:05:21.595Z,2058
2018-09-11T10:06:22.329Z,2148
2018-09-11T10:07:23.069Z,2306
2018-09-11T10:08:23.803Z,2486
2018-09-11T10:09:25.111Z,2531
2018-09-11T10:10:25.969Z,2559
2018-09-11T10:11:26.712Z,2396
2018-09-11T10:12:27.445Z,2199
2018-09-11T10:13:28.181Z,2165
2018-09-11T10:14:29.586Z,2075
2018-09-11T10:15:30.307Z,2008
2018-09-11T10:16:31.290Z,2092
2018-09-11T10:17:32.035Z,2171
2018-09-11T10:18:32.770Z,2143
2018-09-11T10:19:33.551Z,1861
2018-09-11T10:20:34.287Z,2058
2018-09-11T10:21:35.029Z,2103
2018-09-11T10:22:35.766Z,2103
2018-09-11T10:23:36.504Z,2019
2018-09-11T10:24:37.247Z,2013
2018-09-11T10:25:37.992Z,2036
2018-09-11T10:26:38.789Z,2227
2018-09-11T10:27:39.577Z,2019
2018-09-11T10:28:40.397Z,2154
2018-09-11T10:29:41.122Z,1974
2018-09-11T10:30:41.857Z,1946
2018-09-11T10:31:42.649Z,2070
2018-09-11T10:32:43.647Z,2120
2018-09-11T10:33:44.400Z,2058
2018-09-11T10:34:45.118Z,2244
2018-09-11T10:35:45.845Z,2435
2018-09-11T10:36:46.579Z,2570
2018-09-11T10:37:47.320Z,2435
2018-09-11T10:38:48.055Z,2238
2018-09-11T10:39:48.792Z,2323
2018-09-11T10:40:49.518Z,2165
2018-09-11T10:41:50.307Z,2289
2018-09-11T10:42:51.040Z,1901
2018-09-11T10:43:51.789Z,2092
2018-09-11T10:44:52.557Z,2250
2018-09-11T10:45:53.260Z,2362
2018-09-11T10:46:54.043Z,2413
2018-09-11T10:47:54.788Z,2340
2018-09-11T10:48:55.606Z,2536
2018-09-11T10:49:56.258Z,2469
2018-09-11T10:50:56.998Z,2469
2018-09-11T10:51:57.846Z,2514
2018-09-11T10:52:58.521Z,2401
2018-09-11T10:53:59.262Z,2221
2018-09-11T10:54:59.996Z,2176
2018-09-11T10:56:00.746Z,2255
2018-09-11T10:57:01.490Z,2340
2018-09-11T10:58:02.472Z,2576
2018-09-11T10:59:03.214Z,2503
2018-09-11T11:00:04.000Z,2407
2018-09-11T11:01:05.009Z,2598
2018-09-11T11:02:05.735Z,2671
2018-09-11T11:03:06.472Z,2525
2018-09-11T11:04:07.226Z,2593
2018-09-11T11:05:08.311Z,2621
2018-09-11T11:06:09.057Z,2491
2018-09-11T11:07:09.788Z,2244
2018-09-11T11:08:10.524Z,2503
2018-09-11T11:09:11.261Z,2390
2018-09-11T11:10:11.991Z,2165
2018-09-11T11:11:13.324Z,2446
2018-09-11T11:12:14.053Z,2413
2018-09-11T11:13:15.028Z,2705
2018-09-11T11:14:15.779Z,2913
2018-09-11T11:15:16.513Z,2880
2018-09-11T11:16:17.242Z,2829
2018-09-11T11:17:17.978Z,2863
2018-09-11T11:18:18.776Z,2823
2018-09-11T11:19:19.498Z,2711
2018-09-11T11:20:20.228Z,2806
2018-09-11T11:21:20.956Z,2677
2018-09-11T11:22:21.693Z,2542
2018-09-11T11:23:22.781Z,2632
2018-09-11T11:24:23.514Z,2694
2018-09-11T11:25:24.254Z,2728
2018-09-11T11:26:24.995Z,2531
2018-09-11T11:27:25.722Z,2626
2018-09-11T11:28:26.454Z,2525
2018-09-11T11:29:27.195Z,2598
2018-09-11T11:30:28.242Z,2643
2018-09-11T11:31:29.016Z,2694
2018-09-11T11:32:30.051Z,2536
2018-09-11T11:33:30.736Z,2508
2018-09-11T11:34:31.472Z,2626
2018-09-11T11:35:32.451Z,2531
2018-09-11T11:36:33.519Z,2514
2018-09-11T11:37:34.179Z,2475
2018-09-11T11:38:34.906Z,2390
2018-09-11T11:39:35.699Z,2300
2018-09-11T11:40:36.440Z,2188
2018-09-11T11:41:37.429Z,2115
2018-09-11T11:42:38.184Z,1811
2018-09-11T11:43:38.894Z,2086
2018-09-11T11:44:39.664Z,1996
2018-09-11T11:45:40.400Z,2418
2018-09-11T11:46:41.143Z,2413
2018-09-11T11:47:41.877Z,2407
2018-09-11T11:48:42.624Z,2413
2018-09-11T11:49:43.359Z,2548
2018-09-11T11:50:44.096Z,2536
2018-09-11T11:51:45.127Z,2491
2018-09-11T11:52:45.866Z,2396
2018-09-11T11:53:46.601Z,2407
2018-09-11T11:54:47.353Z,2317
2018-09-11T11:55:48.088Z,2351
2018-09-11T11:56:48.815Z,2272
2018-09-11T11:57:49.557Z,2390
2018-09-11T11:58:50.292Z,2205
2018-09-11T11:59:51.036Z,2086
2018-09-11T12:00:51.784Z,1771
2018-09-11T12:01:52.544Z,1811
2018-09-11T12:02:53.442Z,2075
2018-09-11T12:03:54.247Z,2480
2018-09-11T12:04:54.986Z,2441
2018-09-11T12:05:55.729Z,2385
2018-09-11T12:06:56.460Z,2401
2018-09-11T12:07:58.025Z,2424
2018-09-11T12:08:58.703Z,2328
2018-09-11T12:09:59.447Z,2154
2018-09-11T12:11:00.185Z,2160
2018-09-11T12:12:00.935Z,2345
2018-09-11T12:13:01.692Z,2373
2018-09-11T12:14:02.427Z,2210
2018-09-11T12:15:03.333Z,2092
2018-09-11T12:16:04.081Z,2227
2018-09-11T12:17:04.857Z,2323
2018-09-11T12:18:05.551Z,2430
2018-09-11T12:19:06.305Z,2373
2018-09-11T12:20:07.030Z,2576
2018-09-11T12:21:07.777Z,2604
2018-09-11T12:22:08.515Z,2278
2018-09-11T12:23:09.310Z,2362
2018-09-11T12:24:10.051Z,2176
2018-09-11T12:25:10.802Z,2171
2018-09-11T12:26:11.581Z,2233
2018-09-11T12:27:12.291Z,2182
2018-09-11T12:28:13.381Z,2064
2018-09-11T12:29:14.123Z,2030
2018-09-11T12:30:14.868Z,1895
2018-09-11T12:31:15.615Z,1884
2018-09-11T12:32:16.358Z,1918
2018-09-11T12:33:17.096Z,1996
2018-09-11T12:34:17.834Z,2216
2018-09-11T12:35:18.565Z,2205
2018-09-11T12:36:19.550Z,2126
2018-09-11T12:37:20.290Z,2070
2018-09-11T12:38:21.026Z,2019
2018-09-11T12:39:22.013Z,2261
2018-09-11T12:40:22.765Z,2165
2018-09-11T12:41:23.504Z,2351
2018-09-11T12:42:24.296Z,2092
2018-09-11T12:43:25.020Z,781
2018-09-11T12:44:25.772Z,1445
2018-09-11T12:45:26.501Z,1653
2018-09-11T12:46:27.627Z,815
2018-09-11T12:47:28.361Z,770
2018-09-11T12:48:28.962Z,928
2018-09-11T12:49:29.602Z,815
2018-09-11T12:50:30.331Z,804
2018-09-11T12:51:31.062Z,871
2018-09-11T12:52:31.885Z,900
2018-09-11T12:53:32.527Z,855
2018-09-11T12:54:33.313Z,1001
2018-09-11T12:55:34.049Z,1051
2018-09-11T12:56:34.811Z,1507
2018-09-11T12:57:35.531Z,1597
2018-09-11T12:58:36.267Z,714
2018-09-11T12:59:37.005Z,765
2018-09-11T13:00:37.751Z,686
2018-09-11T13:01:38.484Z,652
2018-09-11T13:02:39.464Z,663
2018-09-11T13:03:40.196Z,675
2018-09-11T13:04:41.289Z,675
2018-09-11T13:05:42.038Z,562
2018-09-11T13:06:42.786Z,562
2018-09-11T13:07:43.523Z,675
2018-09-11T13:08:44.260Z,731
2018-09-11T13:09:45.007Z,568
2018-09-11T13:10:45.759Z,545
2018-09-11T13:11:46.490Z,686
2018-09-11T13:12:47.229Z,523
2018-09-11T13:13:48.833Z,511
2018-09-11T13:14:50.498Z,511
2018-09-11T13:15:51.541Z,511
2018-09-11T13:16:52.277Z,1597
2018-09-11T13:17:53.017Z,838
2018-09-11T13:18:53.771Z,585
2018-09-11T13:19:54.499Z,1029
2018-09-11T13:20:55.235Z,590
2018-09-11T13:21:56.318Z,1923
2018-09-11T13:22:57.051Z,1524
2018-09-11T13:23:57.799Z,1231
2018-09-11T13:24:58.539Z,506
2018-09-11T13:25:59.517Z,635
2018-09-11T13:27:00.267Z,500
2018-09-11T13:28:00.993Z,511
2018-09-11T13:29:01.743Z,624
2018-09-11T13:30:02.470Z,652
2018-09-11T13:31:03.206Z,579
2018-09-11T13:32:03.934Z,556
2018-09-11T13:33:04.672Z,1046
2018-09-11T13:34:05.418Z,573
2018-09-11T13:35:06.504Z,641
2018-09-11T13:36:07.256Z,624
2018-09-11T13:37:07.986Z,528
2018-09-11T13:38:08.730Z,585
2018-09-11T13:39:09.464Z,652
2018-09-11T13:40:10.248Z,483
2018-09-11T13:41:10.988Z,528
2018-09-11T13:42:11.713Z,691
2018-09-11T13:43:12.446Z,433
2018-09-11T13:44:13.191Z,478
2018-09-11T13:45:13.973Z,466
2018-09-11T13:46:14.734Z,450
2018-09-11T13:47:15.493Z,1715
2018-09-11T13:48:16.169Z,579
2018-09-11T13:49:16.902Z,663
2018-09-11T13:50:17.644Z,1018
2018-09-11T13:51:18.382Z,832
2018-09-11T13:52:19.115Z,1811
2018-09-11T13:53:19.851Z,1845
2018-09-11T13:54:20.592Z,1878
2018-09-11T13:55:21.340Z,1867
2018-09-11T13:56:22.074Z,1445
2018-09-11T13:57:22.915Z,1372
2018-09-11T13:58:23.628Z,1710
2018-09-11T13:59:24.352Z,545
2018-09-11T14:00:25.080Z,1552
2018-09-11T14:01:25.822Z,1344
2018-09-11T14:02:26.604Z,1299
2018-09-11T14:03:27.297Z,1096
2018-09-11T14:04:28.019Z,1271
2018-09-11T14:05:29.000Z,1485
2018-09-11T14:06:29.728Z,1485
2018-09-11T14:07:30.459Z,990
2018-09-11T14:08:31.522Z,1046